createdAt,value
2018-09-30T00:02:03.336Z,99013.48
2018-09-30T00:04:32.879Z,99012.73
2018-09-30T00:07:02.541Z,99011.50
2018-09-30T00:09:32.623Z,99010.27
2018-09-30T00:12:03.441Z,99013.98
2018-09-30T00:14:32.933Z,99015.50
2018-09-30T00:17:02.387Z,99002.06
2018-09-30T00:19:31.960Z,99005.23
2018-09-30T00:22:01.393Z,99002.56
2018-09-30T00:24:35.985Z,99000.91
2018-09-30T00:27:22.238Z,98997.99
2018-09-30T00:29:51.817Z,98983.20
2018-09-30T00:32:21.343Z,98988.80
2018-09-30T00:34:50.892Z,98983.68
2018-09-30T00:37:20.354Z,98981.42
2018-09-30T00:39:49.909Z,98985.27
2018-09-30T00:42:19.710Z,98978.45
2018-09-30T00:44:49.300Z,98974.17
2018-09-30T00:47:18.808Z,98967.72
2018-09-30T00:49:48.531Z,98972.03
2018-09-30T00:52:18.020Z,98972.98
2018-09-30T00:54:47.743Z,98972.30
2018-09-30T00:57:17.205Z,98969.77
2018-09-30T00:59:46.672Z,98957.09
2018-09-30T01:02:16.360Z,98951.83
2018-09-30T01:04:45.922Z,98951.87
2018-09-30T01:07:15.372Z,98952.58
2018-09-30T01:09:44.933Z,98944.58
2018-09-30T01:12:14.681Z,98953.23
2018-09-30T01:14:44.235Z,98953.56
2018-09-30T01:17:13.696Z,98959.27
2018-09-30T01:19:43.468Z,98957.63
2018-09-30T01:22:12.913Z,98959.34
2018-09-30T01:24:42.444Z,98951.47
2018-09-30T01:27:11.919Z,98951.94
2018-09-30T01:29:41.468Z,98946.75
2018-09-30T01:32:10.895Z,98950.91
2018-09-30T01:34:40.431Z,98948.01
2018-09-30T01:37:10.341Z,98943.66
2018-09-30T01:39:39.907Z,98939.42
2018-09-30T01:42:09.554Z,98935.50
2018-09-30T01:44:39.121Z,98931.42
2018-09-30T01:47:08.568Z,98929.02
2018-09-30T01:49:38.122Z,98924.61
2018-09-30T01:52:18.907Z,98922.07
2018-09-30T01:54:48.746Z,98922.77
2018-09-30T01:57:18.309Z,98915.05
2018-09-30T01:59:47.859Z,98914.13
2018-09-30T02:02:17.614Z,98911.37
2018-09-30T02:04:47.378Z,98903.98
2018-09-30T02:07:17.086Z,98903.03
2018-09-30T02:09:46.803Z,98896.59
2018-09-30T02:12:16.504Z,98895.77
2018-09-30T02:14:46.048Z,98888.41
2018-09-30T02:17:15.820Z,98891.38
2018-09-30T02:19:45.374Z,98889.69
2018-09-30T02:22:14.852Z,98888.27
2018-09-30T02:24:44.537Z,98881.47
2018-09-30T02:27:14.349Z,98878.70
2018-09-30T02:29:43.984Z,98871.14
2018-09-30T02:32:13.766Z,98870.97
2018-09-30T02:34:43.475Z,98870.47
2018-09-30T02:37:13.016Z,98869.22
2018-09-30T02:39:42.605Z,98863.02
2018-09-30T02:42:12.805Z,98863.38
2018-09-30T02:44:42.469Z,98848.75
2018-09-30T02:47:11.943Z,98849.02
2018-09-30T02:49:41.738Z,98839.17
2018-09-30T02:52:11.160Z,98838.22
2018-09-30T02:54:40.683Z,98844.63
2018-09-30T02:57:10.192Z,98841.19
2018-09-30T02:59:39.954Z,98840.83
2018-09-30T03:02:09.370Z,98838.22
2018-09-30T03:04:38.907Z,98839.70
2018-09-30T03:07:13.780Z,98834.42
2018-09-30T03:09:43.940Z,98834.35
2018-09-30T03:12:13.449Z,98829.52
2018-09-30T03:14:42.996Z,98823.47
2018-09-30T03:17:13.508Z,98821.58
2018-09-30T03:19:43.003Z,98813.74
2018-09-30T03:22:12.657Z,98805.91
2018-09-30T03:24:42.264Z,98809.65
2018-09-30T03:27:11.881Z,98806.41
2018-09-30T03:29:41.579Z,98813.19
2018-09-30T03:32:11.020Z,98807.09
2018-09-30T03:34:40.799Z,98800.81
2018-09-30T03:37:10.565Z,98801.09
2018-09-30T03:39:46.605Z,98800.88
2018-09-30T03:42:16.369Z,98791.21
2018-09-30T03:44:46.093Z,98786.08
2018-09-30T03:47:16.597Z,98786.80
2018-09-30T03:49:46.094Z,98787.95
2018-09-30T03:52:15.596Z,98777.05
2018-09-30T03:54:45.121Z,98568.63
2018-09-30T03:57:14.624Z,98777.22
2018-09-30T03:59:44.064Z,98778.80
2018-09-30T04:02:13.631Z,98775.56
2018-09-30T04:04:43.392Z,98767.68
2018-09-30T04:07:12.827Z,98770.88
2018-09-30T04:09:42.576Z,98768.16
2018-09-30T04:12:12.010Z,98770.02
2018-09-30T04:14:41.427Z,98764.09
2018-09-30T04:17:11.006Z,98763.77
2018-09-30T04:19:40.403Z,98763.23
2018-09-30T04:22:09.909Z,98765.19
2018-09-30T04:24:39.476Z,98759.23
2018-09-30T04:27:09.089Z,98765.39
2018-09-30T04:29:38.692Z,98757.57
2018-09-30T04:32:08.208Z,98756.23
2018-09-30T04:34:37.651Z,98755.41
2018-09-30T04:37:07.244Z,98747.11
2018-09-30T04:39:36.705Z,98746.81
2018-09-30T04:42:06.627Z,98746.39
2018-09-30T04:44:36.095Z,98745.51
2018-09-30T04:47:05.677Z,98745.16
2018-09-30T04:49:35.100Z,98748.63
2018-09-30T04:52:04.557Z,98746.02
2018-09-30T04:54:34.013Z,98751.97
2018-09-30T04:57:03.441Z,98754.96
2018-09-30T04:59:33.025Z,98748.30
2018-09-30T05:02:02.604Z,98743.94
2018-09-30T05:04:32.047Z,98758.10
2018-09-30T05:07:01.803Z,98750.57
2018-09-30T05:09:31.370Z,98752.06
2018-09-30T05:12:01.189Z,98750.60
2018-09-30T05:14:30.691Z,98749.24
2018-09-30T05:17:00.393Z,98747.97
2018-09-30T05:19:29.930Z,98751.17
2018-09-30T05:21:59.464Z,98745.89
2018-09-30T05:24:29.174Z,98743.77
2018-09-30T05:26:58.716Z,98746.10
2018-09-30T05:29:28.272Z,98731.73
2018-09-30T05:31:57.755Z,98732.50
2018-09-30T05:34:27.614Z,98732.17
2018-09-30T05:36:57.149Z,98733.69
2018-09-30T05:39:26.854Z,98736.31
2018-09-30T05:41:56.477Z,98734.36
2018-09-30T05:44:26.270Z,98722.80
2018-09-30T05:46:55.864Z,98722.88
2018-09-30T05:49:25.306Z,98721.72
2018-09-30T05:51:54.842Z,98724.55
2018-09-30T05:54:24.344Z,98726.25
2018-09-30T05:56:53.897Z,98724.61
2018-09-30T05:59:23.323Z,98728.69
2018-09-30T06:01:52.872Z,98733.64
2018-09-30T06:04:22.410Z,98733.59
2018-09-30T06:06:53.008Z,98737.00
2018-09-30T06:09:22.701Z,98741.19
2018-09-30T06:11:52.264Z,98737.36
2018-09-30T06:14:22.567Z,98741.35
2018-09-30T06:16:52.383Z,98743.09
2018-09-30T06:19:21.878Z,98746.09
2018-09-30T06:21:51.345Z,98742.93
2018-09-30T06:24:21.000Z,98747.12
2018-09-30T06:26:51.119Z,98748.77
2018-09-30T06:29:20.631Z,98755.25
2018-09-30T06:31:50.245Z,98745.67
2018-09-30T06:34:19.957Z,98747.84
2018-09-30T06:36:49.549Z,98742.56
2018-09-30T06:39:19.020Z,98746.88
2018-09-30T06:41:48.571Z,98745.23
2018-09-30T06:44:18.267Z,98751.05
2018-09-30T06:46:47.884Z,98740.03
2018-09-30T06:49:17.474Z,98751.19
2018-09-30T06:51:47.055Z,98741.41
2018-09-30T06:54:16.608Z,98737.91
2018-09-30T06:56:46.400Z,98741.58
2018-09-30T06:59:16.208Z,98732.70
2018-09-30T07:01:46.157Z,98738.23
2018-09-30T07:04:15.932Z,98734.47
2018-09-30T07:06:45.525Z,98727.21
2018-09-30T07:09:15.102Z,98726.78
2018-09-30T07:11:44.653Z,98716.12
2018-09-30T07:14:14.256Z,98715.52
2018-09-30T07:16:43.790Z,98711.03
2018-09-30T07:19:13.367Z,98710.11
2018-09-30T07:21:43.282Z,98709.97
2018-09-30T07:24:12.989Z,98701.20
2018-09-30T07:26:42.806Z,98704.34
2018-09-30T07:29:12.583Z,98699.61
2018-09-30T07:31:42.043Z,98695.52
2018-09-30T07:34:11.726Z,98685.32
2018-09-30T07:36:41.575Z,98693.52
2018-09-30T07:39:11.887Z,98691.22
2018-09-30T07:41:41.568Z,98693.55
2018-09-30T07:44:12.061Z,98696.17
2018-09-30T07:46:41.570Z,98695.03
2018-09-30T07:49:11.115Z,98691.56
2018-09-30T07:51:40.710Z,98688.86
2018-09-30T07:54:10.369Z,98690.32
2018-09-30T07:56:39.827Z,98680.23
2018-09-30T07:59:09.691Z,98675.30
2018-09-30T08:01:39.199Z,98674.97
2018-09-30T08:04:09.063Z,98668.02
2018-09-30T08:06:38.769Z,98663.61
2018-09-30T08:09:09.229Z,98656.16
2018-09-30T08:11:38.996Z,98658.17
2018-09-30T08:14:08.808Z,98654.16
2018-09-30T08:16:38.930Z,98650.92
2018-09-30T08:19:08.428Z,98645.97
2018-09-30T08:21:38.138Z,98647.30
2018-09-30T08:24:08.101Z,98655.44
2018-09-30T08:26:38.039Z,98638.75
2018-09-30T08:29:07.811Z,98628.85
2018-09-30T08:31:37.485Z,98634.02
2018-09-30T08:34:09.140Z,98624.61
2018-09-30T08:36:39.770Z,98622.32
2018-09-30T08:39:10.208Z,98629.89
2018-09-30T08:41:39.906Z,98625.77
2018-09-30T08:44:09.636Z,98622.66
2018-09-30T08:46:39.242Z,98615.45
2018-09-30T08:49:08.940Z,98611.84
2018-09-30T08:51:38.458Z,98611.88
2018-09-30T08:54:08.276Z,98606.69
2018-09-30T08:56:37.750Z,98605.97
2018-09-30T08:59:07.562Z,98611.02
2018-09-30T09:01:37.108Z,98609.00
2018-09-30T09:04:06.700Z,98604.50
2018-09-30T09:06:36.192Z,98605.56
2018-09-30T09:09:11.620Z,98605.49
2018-09-30T09:11:41.276Z,98600.75
2018-09-30T09:14:10.940Z,98611.69
2018-09-30T09:16:40.500Z,98602.11
2018-09-30T09:19:10.152Z,98602.23
2018-09-30T09:21:39.708Z,98601.00
2018-09-30T09:24:09.258Z,98602.39
2018-09-30T09:26:38.868Z,98598.72
2018-09-30T09:29:08.412Z,98595.58
2018-09-30T09:31:38.203Z,98563.83
2018-09-30T09:34:08.100Z,98580.09
2018-09-30T09:36:37.628Z,98578.59
2018-09-30T09:39:09.604Z,98573.12
2018-09-30T09:41:39.407Z,98568.77
2018-09-30T09:44:09.183Z,98559.70
2018-09-30T09:46:38.966Z,98558.85
2018-09-30T09:49:08.416Z,98562.44
2018-09-30T09:51:38.113Z,98560.58
2018-09-30T09:54:08.129Z,98555.48
2018-09-30T09:56:37.707Z,98558.84
2018-09-30T09:59:07.439Z,98556.09
2018-09-30T10:01:36.896Z,98555.88
2018-09-30T10:04:06.552Z,98558.45
2018-09-30T10:06:36.012Z,98555.05
2018-09-30T10:09:06.764Z,98550.44
2018-09-30T10:11:36.394Z,98547.92
2018-09-30T10:14:05.997Z,98549.55
2018-09-30T10:16:35.501Z,98541.53
2018-09-30T10:19:04.941Z,98531.61
2018-09-30T10:21:34.818Z,98526.19
2018-09-30T10:24:04.423Z,98530.11
2018-09-30T10:26:34.029Z,98518.48
2018-09-30T10:29:03.436Z,98513.84
2018-09-30T10:31:32.904Z,98508.70
2018-09-30T10:34:02.465Z,98506.60
2018-09-30T10:36:32.363Z,98501.23
2018-09-30T10:39:02.004Z,98504.27
2018-09-30T10:41:31.436Z,98493.59
2018-09-30T10:44:01.277Z,98497.70
2018-09-30T10:46:30.791Z,98491.63
2018-09-30T10:49:00.390Z,98490.99
2018-09-30T10:51:30.096Z,98476.87
2018-09-30T10:53:59.836Z,98493.56
2018-09-30T10:56:29.310Z,98484.12
2018-09-30T10:58:58.743Z,98474.28
2018-09-30T11:01:29.184Z,98473.59
2018-09-30T11:03:59.104Z,98474.14
2018-09-30T11:06:28.644Z,98471.22
2018-09-30T11:08:58.084Z,98460.80
2018-09-30T11:11:27.546Z,98454.77
2018-09-30T11:13:57.024Z,98446.15
2018-09-30T11:16:26.563Z,98440.05
2018-09-30T11:18:56.024Z,98435.67
2018-09-30T11:21:25.432Z,98432.89
2018-09-30T11:23:54.920Z,98427.69
2018-09-30T11:26:24.385Z,98426.06
2018-09-30T11:28:53.836Z,98418.55
2018-09-30T11:31:23.453Z,98410.27
2018-09-30T11:33:53.227Z,98406.11
2018-09-30T11:36:22.849Z,98400.19
2018-09-30T11:38:52.275Z,98395.88
2018-09-30T11:41:21.827Z,98389.38
2018-09-30T11:43:51.287Z,98389.15
2018-09-30T11:46:20.841Z,98385.05
2018-09-30T11:48:50.330Z,98379.51
2018-09-30T11:51:19.848Z,98377.59
2018-09-30T11:53:49.329Z,98373.22
2018-09-30T11:56:18.860Z,98375.50
2018-09-30T11:58:48.453Z,98366.72
2018-09-30T12:01:17.980Z,98361.83
2018-09-30T12:03:47.458Z,98356.77
2018-09-30T12:06:17.000Z,98353.73
2018-09-30T12:08:46.468Z,98342.92
2018-09-30T12:11:15.996Z,98339.47
2018-09-30T12:13:45.451Z,98340.92
2018-09-30T12:16:14.988Z,98325.19
2018-09-30T12:18:44.472Z,98324.73
2018-09-30T12:21:14.033Z,98319.83
2018-09-30T12:23:43.460Z,98312.81
2018-09-30T12:26:12.928Z,98307.23
2018-09-30T12:28:42.412Z,98299.22
2018-09-30T12:31:12.108Z,98295.37
2018-09-30T12:33:41.606Z,98293.00
2018-09-30T12:36:11.184Z,98292.49
2018-09-30T12:38:40.614Z,98287.36
2018-09-30T12:41:10.155Z,98288.36
2018-09-30T12:43:39.605Z,98281.27
2018-09-30T12:46:09.152Z,98277.62
2018-09-30T12:48:38.609Z,98276.91
2018-09-30T12:51:08.088Z,98280.75
2018-09-30T12:53:37.511Z,98278.64
2018-09-30T12:56:07.021Z,98275.20
2018-09-30T12:58:36.471Z,98270.33
2018-09-30T13:01:06.159Z,98271.17
2018-09-30T13:03:35.683Z,98267.50
2018-09-30T13:06:05.192Z,98259.88
2018-09-30T13:08:34.656Z,98252.25
2018-09-30T13:11:04.240Z,98250.90
2018-09-30T13:13:33.785Z,98254.03
2018-09-30T13:16:03.520Z,98251.94
2018-09-30T13:18:33.203Z,98247.67
2018-09-30T13:21:03.038Z,98234.72
2018-09-30T13:23:32.397Z,98227.48
2018-09-30T13:26:01.893Z,98231.64
2018-09-30T13:28:31.628Z,98223.04
2018-09-30T13:31:01.089Z,98218.20
2018-09-30T13:33:30.576Z,98212.17
2018-09-30T13:36:00.141Z,98207.23
2018-09-30T13:38:29.584Z,98197.85
2018-09-30T13:40:59.344Z,98200.78
2018-09-30T13:43:28.859Z,98202.66
2018-09-30T13:45:58.379Z,98208.66
2018-09-30T13:48:28.071Z,98203.28
2018-09-30T13:50:57.630Z,98205.38
2018-09-30T13:53:29.230Z,98195.52
2018-09-30T13:55:58.940Z,98191.05
2018-09-30T13:58:28.403Z,98186.49
2018-09-30T14:00:57.916Z,98193.19
2018-09-30T14:03:27.379Z,98173.14
2018-09-30T14:05:56.920Z,98180.77
2018-09-30T14:08:26.382Z,98170.73
2018-09-30T14:10:55.792Z,98181.32
2018-09-30T14:13:25.470Z,98179.16
2018-09-30T14:15:54.907Z,98177.98
2018-09-30T14:18:24.395Z,98179.85
2018-09-30T14:20:53.838Z,98168.00
2018-09-30T14:23:23.304Z,98168.53
2018-09-30T14:25:52.803Z,98151.84
2018-09-30T14:28:22.256Z,98160.05
2018-09-30T14:30:52.208Z,98155.44
2018-09-30T14:33:21.616Z,98154.89
2018-09-30T14:35:51.173Z,98153.08
2018-09-30T14:38:20.783Z,98147.48
2018-09-30T14:40:50.632Z,98142.92
2018-09-30T14:43:20.112Z,98142.81
2018-09-30T14:45:49.726Z,98141.86
2018-09-30T14:48:19.318Z,98138.95
2018-09-30T14:50:48.739Z,98126.47
2018-09-30T14:53:18.224Z,98130.44
2018-09-30T14:55:47.699Z,98121.53
2018-09-30T14:58:17.116Z,98125.36
2018-09-30T15:00:46.636Z,98117.45
2018-09-30T15:03:16.123Z,98116.17
2018-09-30T15:05:45.879Z,98112.00
2018-09-30T15:08:15.521Z,98109.40
2018-09-30T15:10:44.989Z,98106.05
2018-09-30T15:13:14.494Z,98100.26
2018-09-30T15:15:43.952Z,98097.91
2018-09-30T15:18:13.379Z,98097.63
2018-09-30T15:20:42.856Z,98093.90
2018-09-30T15:23:12.455Z,98094.70
2018-09-30T15:25:42.024Z,98086.91
2018-09-30T15:28:11.481Z,98091.02
2018-09-30T15:30:41.238Z,98086.38
2018-09-30T15:33:10.940Z,98089.97
2018-09-30T15:35:40.364Z,98091.34
2018-09-30T15:38:09.905Z,98080.45
2018-09-30T15:40:39.459Z,98088.26
2018-09-30T15:43:08.960Z,98082.77
2018-09-30T15:45:38.425Z,98092.98
2018-09-30T15:48:08.032Z,98084.06
2018-09-30T15:50:37.565Z,98084.41
2018-09-30T15:53:07.227Z,98084.63
2018-09-30T15:55:36.652Z,98077.88
2018-09-30T15:58:06.201Z,98084.94
2018-09-30T16:00:35.709Z,98086.78
2018-09-30T16:03:06.140Z,98093.19
2018-09-30T16:05:36.049Z,98090.38
2018-09-30T16:08:05.742Z,98089.48
2018-09-30T16:10:35.525Z,98089.96
2018-09-30T16:13:05.103Z,98084.72
2018-09-30T16:15:35.541Z,98083.97
2018-09-30T16:18:05.006Z,98082.27
2018-09-30T16:20:34.496Z,98081.19
2018-09-30T16:23:04.852Z,98080.72
2018-09-30T16:25:34.327Z,98074.06
2018-09-30T16:28:03.855Z,98073.82
2018-09-30T16:30:33.534Z,98080.08
2018-09-30T16:33:03.045Z,98085.38
2018-09-30T16:35:32.537Z,98082.03
2018-09-30T16:38:02.080Z,98081.22
2018-09-30T16:40:33.363Z,98081.09
2018-09-30T16:43:02.916Z,98076.08
2018-09-30T16:45:33.188Z,98077.85
2018-09-30T16:48:02.656Z,98080.23
2018-09-30T16:50:32.252Z,98069.30
2018-09-30T16:53:01.943Z,98050.15
2018-09-30T16:55:31.655Z,98077.80
2018-09-30T16:58:02.196Z,98084.33
2018-09-30T17:00:32.559Z,98083.18
2018-09-30T17:03:02.134Z,98089.12
2018-09-30T17:05:31.620Z,98087.03
2018-09-30T17:08:01.144Z,98090.55
2018-09-30T17:10:30.662Z,98091.64
2018-09-30T17:13:00.186Z,97991.77
2018-09-30T17:15:29.632Z,98100.17
2018-09-30T17:17:59.191Z,98094.05
2018-09-30T17:20:29.815Z,98099.52
2018-09-30T17:22:59.352Z,98099.12
2018-09-30T17:25:28.804Z,98096.00
2018-09-30T17:27:58.899Z,98095.75
2018-09-30T17:30:28.431Z,98096.02
2018-09-30T17:32:57.951Z,98094.28
2018-09-30T17:35:27.461Z,98094.81
2018-09-30T17:37:57.041Z,98101.34
2018-09-30T17:40:26.452Z,98105.36
2018-09-30T17:42:56.430Z,98100.78
2018-09-30T17:45:25.880Z,98098.45
2018-09-30T17:47:55.660Z,98099.27
2018-09-30T17:50:25.384Z,98097.45
2018-09-30T17:52:55.024Z,98097.75
2018-09-30T17:55:24.670Z,98091.38
2018-09-30T17:57:54.189Z,98088.10
2018-09-30T18:00:23.883Z,98091.27
2018-09-30T18:02:53.722Z,98089.67
2018-09-30T18:05:23.623Z,98087.64
2018-09-30T18:07:53.642Z,98090.72
2018-09-30T18:10:23.444Z,98087.27
2018-09-30T18:12:53.437Z,98089.50
2018-09-30T18:15:23.077Z,98086.55
2018-09-30T18:17:52.996Z,98084.82
2018-09-30T18:20:24.446Z,98085.00
2018-09-30T18:22:54.089Z,98093.34
2018-09-30T18:25:23.677Z,98089.19
2018-09-30T18:27:53.273Z,98090.38
2018-09-30T18:30:22.745Z,98090.19
2018-09-30T18:32:53.037Z,98086.83
2018-09-30T18:35:22.781Z,98088.06
2018-09-30T18:37:53.411Z,98091.51
2018-09-30T18:40:23.032Z,98093.80
2018-09-30T18:42:53.018Z,98082.38
2018-09-30T18:45:22.850Z,98087.55
2018-09-30T18:47:52.337Z,98091.08
2018-09-30T18:50:21.941Z,98103.34
2018-09-30T18:52:51.500Z,98094.72
2018-09-30T18:55:21.274Z,98088.28
2018-09-30T18:57:50.896Z,98089.80
2018-09-30T19:00:20.588Z,98087.74
2018-09-30T19:02:50.351Z,98085.84
2018-09-30T19:05:20.052Z,98085.12
2018-09-30T19:07:49.817Z,98081.04
2018-09-30T19:10:19.595Z,98082.36
2018-09-30T19:12:49.343Z,98080.70
2018-09-30T19:15:18.843Z,98083.52
2018-09-30T19:17:49.190Z,98080.08
2018-09-30T19:20:19.648Z,98075.38
2018-09-30T19:22:50.709Z,98075.88
2018-09-30T19:25:20.452Z,98073.67
2018-09-30T19:27:50.363Z,98081.27
2018-09-30T19:30:20.068Z,98074.98
2018-09-30T19:32:49.879Z,98071.80
2018-09-30T19:35:19.596Z,98074.81
2018-09-30T19:37:49.302Z,98070.67
2018-09-30T19:40:19.008Z,98069.56
2018-09-30T19:42:48.755Z,98068.33
2018-09-30T19:45:18.328Z,98070.84
2018-09-30T19:47:48.135Z,98071.78
2018-09-30T19:50:17.615Z,98074.80
2018-09-30T19:52:47.168Z,98067.72
2018-09-30T19:55:17.756Z,98078.25
2018-09-30T19:57:47.379Z,98071.46
2018-09-30T20:00:16.901Z,98073.42
2018-09-30T20:02:46.409Z,98069.27
2018-09-30T20:05:15.923Z,98063.33
2018-09-30T20:07:45.504Z,98075.35
2018-09-30T20:10:14.983Z,98072.22
2018-09-30T20:12:44.814Z,98063.88
2018-09-30T20:15:14.297Z,98058.05
2018-09-30T20:17:44.131Z,98052.06
2018-09-30T20:20:13.795Z,98055.42
2018-09-30T20:22:43.243Z,98050.97
2018-09-30T20:25:12.776Z,98048.78
2018-09-30T20:27:42.327Z,98045.58
2018-09-30T20:30:11.859Z,98039.23
2018-09-30T20:32:41.463Z,98039.29
2018-09-30T20:35:11.108Z,98037.09
2018-09-30T20:37:40.984Z,98032.70
2018-09-30T20:40:10.487Z,98036.92
2018-09-30T20:42:40.212Z,98032.52
2018-09-30T20:45:09.853Z,98030.69
2018-09-30T20:47:39.373Z,98027.19
2018-09-30T20:50:08.861Z,98031.84
2018-09-30T20:52:38.357Z,98025.42
2018-09-30T20:55:07.868Z,98034.08
2018-09-30T20:57:37.409Z,98028.86
2018-09-30T21:00:06.876Z,98025.68
2018-09-30T21:02:36.408Z,98023.44
2018-09-30T21:07:13.349Z,98027.11
2018-09-30T21:09:43.034Z,98023.08
2018-09-30T21:12:12.846Z,98028.46
2018-09-30T21:14:45.824Z,98030.64
2018-09-30T21:17:16.840Z,98036.97
2018-09-30T21:19:47.604Z,98027.47
2018-09-30T21:22:17.209Z,98029.00
2018-09-30T21:24:46.820Z,98028.19
2018-09-30T21:27:16.480Z,98036.70
2018-09-30T21:29:46.238Z,98035.52
2018-09-30T21:32:15.708Z,98041.59
2018-09-30T21:34:45.868Z,98037.98
2018-09-30T21:37:15.497Z,98030.42
2018-09-30T21:39:45.178Z,98033.75
2018-09-30T21:42:14.681Z,98046.08
2018-09-30T21:44:44.290Z,98040.53
2018-09-30T21:47:13.751Z,98036.97
2018-09-30T21:49:43.499Z,98033.17
2018-09-30T21:52:13.004Z,98033.74
2018-09-30T21:54:43.328Z,98025.06
2018-09-30T21:57:13.199Z,98022.53
2018-09-30T21:59:42.764Z,98036.06
2018-09-30T22:02:12.351Z,98037.20
2018-09-30T22:04:41.964Z,98037.16
2018-09-30T22:07:12.595Z,98035.38
2018-09-30T22:09:42.401Z,98026.72
2018-09-30T22:12:12.026Z,98023.70
2018-09-30T22:14:41.848Z,98021.02
2018-09-30T22:17:11.996Z,98017.63
2018-09-30T22:19:41.851Z,98018.64
2018-09-30T22:22:11.398Z,98021.27
2018-09-30T22:24:40.976Z,98024.49
2018-09-30T22:27:10.638Z,98020.29
2018-09-30T22:29:40.170Z,98022.78
2018-09-30T22:32:09.647Z,98023.28
2018-09-30T22:34:39.288Z,98019.10
2018-09-30T22:37:08.811Z,98017.30
2018-09-30T22:39:38.316Z,98016.50
2018-09-30T22:42:08.023Z,98015.03
2018-09-30T22:44:37.640Z,98010.55
2018-09-30T22:47:07.525Z,98014.98
2018-09-30T22:49:37.563Z,98017.34
2018-09-30T22:52:07.516Z,98014.70
2018-09-30T22:54:37.132Z,98015.72
2018-09-30T22:57:06.950Z,98012.66
2018-09-30T22:59:36.537Z,98013.55
2018-09-30T23:02:06.470Z,98013.22
2018-09-30T23:04:36.072Z,98012.66
2018-09-30T23:07:05.672Z,98017.25
2018-09-30T23:09:35.521Z,98013.56
2018-09-30T23:12:05.230Z,98014.81
2018-09-30T23:14:34.940Z,98017.32
2018-09-30T23:17:04.473Z,98011.91
2018-09-30T23:19:34.159Z,98017.65
2018-09-30T23:22:03.703Z,98021.86
2018-09-30T23:24:33.169Z,98026.52
2018-09-30T23:27:02.924Z,98024.08
2018-09-30T23:29:32.443Z,98029.20
2018-09-30T23:32:01.919Z,98020.81
2018-09-30T23:34:31.557Z,98021.14
2018-09-30T23:37:01.110Z,98016.59
2018-09-30T23:39:30.596Z,98021.98
2018-09-30T23:42:00.098Z,98023.98
2018-09-30T23:44:29.528Z,98026.58
2018-09-30T23:46:59.109Z,98031.53
2018-09-30T23:49:28.512Z,98030.23
2018-09-30T23:51:57.911Z,98028.63
2018-09-30T23:54:27.482Z,98036.18
2018-09-30T23:56:57.229Z,98037.83
2018-09-30T23:59:26.730Z,98037.55
